<?xml version="1.0" encoding="UTF-8" standalone="no" ?>
<gpx xmlns="http://www.topografix.com/GPX/1/1" xmlns:xsi="http://www.w3.org/2001/XMLSchema-instance" xsi:schemaLocation="http://www.topografix.com/GPX/1/1 http://www.topografix.com/GPX/1/1/gpx.xsd" version="1.1" creator="VisuGPX - https://www.visugpx.com">
  <metadata>
    <name>2024-04-04-46-gourdon-notre Dame des neiges</name>
    <desc><![CDATA[Randonnée de 11 km pour environ 360m de dénivelé positif. Belle randonnée dont le départ est donné à l'église de notre Dame des neiges, et l'ancien moulin. De beaux sentiers qui ressemblent par endroit à des ravines de montagnes vous emmènent vers St Clair et retour]]></desc>
  </metadata>
  <trk>
    <name><![CDATA[Notre Dame des Neiges-18621184]]></name>
    <trkseg>
      <trkpt lat="44.73259" lon="1.39273">
        <ele>203</ele>
        <time>2024-03-27T10:17:52Z</time>
      </trkpt>
      <trkpt lat="44.73297" lon="1.39428">
        <ele>213</ele>
        <time>2024-03-27T10:20:27Z</time>
      </trkpt>
      <trkpt lat="44.7335" lon="1.39518">
        <ele>212</ele>
        <time>2024-03-27T10:22:18Z</time>
      </trkpt>
      <trkpt lat="44.73343" lon="1.39506">
        <ele>212</ele>
        <time>2024-03-27T10:22:33Z</time>
      </trkpt>
      <trkpt lat="44.73308" lon="1.39564">
        <ele>222</ele>
        <time>2024-03-27T10:23:45Z</time>
      </trkpt>
      <trkpt lat="44.7327" lon="1.39613">
        <ele>230</ele>
        <time>2024-03-27T10:24:54Z</time>
      </trkpt>
      <trkpt lat="44.73226" lon="1.39646">
        <ele>234</ele>
        <time>2024-03-27T10:26:00Z</time>
      </trkpt>
      <trkpt lat="44.73205" lon="1.39661">
        <ele>235</ele>
        <time>2024-03-27T10:26:32Z</time>
      </trkpt>
      <trkpt lat="44.73145" lon="1.39738">
        <ele>241</ele>
        <time>2024-03-27T10:28:20Z</time>
      </trkpt>
      <trkpt lat="44.73138" lon="1.39746">
        <ele>242</ele>
        <time>2024-03-27T10:28:32Z</time>
      </trkpt>
      <trkpt lat="44.73113" lon="1.39763">
        <ele>245</ele>
        <time>2024-03-27T10:29:09Z</time>
      </trkpt>
      <trkpt lat="44.73071" lon="1.39764">
        <ele>251</ele>
        <time>2024-03-27T10:30:05Z</time>
      </trkpt>
      <trkpt lat="44.73026" lon="1.39757">
        <ele>261</ele>
        <time>2024-03-27T10:31:06Z</time>
      </trkpt>
      <trkpt lat="44.72966" lon="1.39792">
        <ele>264</ele>
        <time>2024-03-27T10:32:32Z</time>
      </trkpt>
      <trkpt lat="44.72965" lon="1.39793">
        <ele>264</ele>
        <time>2024-03-27T10:32:34Z</time>
      </trkpt>
      <trkpt lat="44.72959" lon="1.39788">
        <ele>264</ele>
        <time>2024-03-27T10:32:43Z</time>
      </trkpt>
      <trkpt lat="44.7295" lon="1.39784">
        <ele>265</ele>
        <time>2024-03-27T10:32:56Z</time>
      </trkpt>
      <trkpt lat="44.72881" lon="1.39772">
        <ele>259</ele>
        <time>2024-03-27T10:34:29Z</time>
      </trkpt>
      <trkpt lat="44.72875" lon="1.39773">
        <ele>258</ele>
        <time>2024-03-27T10:34:37Z</time>
      </trkpt>
      <trkpt lat="44.72864" lon="1.39774">
        <ele>257</ele>
        <time>2024-03-27T10:34:52Z</time>
      </trkpt>
      <trkpt lat="44.72853" lon="1.3978">
        <ele>254</ele>
        <time>2024-03-27T10:35:07Z</time>
      </trkpt>
      <trkpt lat="44.72831" lon="1.39795">
        <ele>251</ele>
        <time>2024-03-27T10:35:40Z</time>
      </trkpt>
      <trkpt lat="44.72821" lon="1.39808">
        <ele>249</ele>
        <time>2024-03-27T10:35:58Z</time>
      </trkpt>
      <trkpt lat="44.7281" lon="1.3981">
        <ele>248</ele>
        <time>2024-03-27T10:36:13Z</time>
      </trkpt>
      <trkpt lat="44.72794" lon="1.39823">
        <ele>245</ele>
        <time>2024-03-27T10:36:37Z</time>
      </trkpt>
      <trkpt lat="44.72758" lon="1.39854">
        <ele>240</ele>
        <time>2024-03-27T10:37:34Z</time>
      </trkpt>
      <trkpt lat="44.72743" lon="1.39873">
        <ele>239</ele>
        <time>2024-03-27T10:38:01Z</time>
      </trkpt>
      <trkpt lat="44.72741" lon="1.39875">
        <ele>238</ele>
        <time>2024-03-27T10:38:04Z</time>
      </trkpt>
      <trkpt lat="44.72728" lon="1.3995">
        <ele>239</ele>
        <time>2024-03-27T10:39:17Z</time>
      </trkpt>
      <trkpt lat="44.7271" lon="1.39987">
        <ele>240</ele>
        <time>2024-03-27T10:40:00Z</time>
      </trkpt>
      <trkpt lat="44.72679" lon="1.40035">
        <ele>245</ele>
        <time>2024-03-27T10:41:01Z</time>
      </trkpt>
      <trkpt lat="44.72666" lon="1.40041">
        <ele>246</ele>
        <time>2024-03-27T10:41:19Z</time>
      </trkpt>
      <trkpt lat="44.7264" lon="1.40054">
        <ele>248</ele>
        <time>2024-03-27T10:41:56Z</time>
      </trkpt>
      <trkpt lat="44.726" lon="1.40067">
        <ele>250</ele>
        <time>2024-03-27T10:42:51Z</time>
      </trkpt>
      <trkpt lat="44.72582" lon="1.40078">
        <ele>251</ele>
        <time>2024-03-27T10:43:17Z</time>
      </trkpt>
      <trkpt lat="44.72568" lon="1.40086">
        <ele>249</ele>
        <time>2024-03-27T10:43:37Z</time>
      </trkpt>
      <trkpt lat="44.72526" lon="1.40152">
        <ele>245</ele>
        <time>2024-03-27T10:45:01Z</time>
      </trkpt>
      <trkpt lat="44.72496" lon="1.40202">
        <ele>241</ele>
        <time>2024-03-27T10:46:03Z</time>
      </trkpt>
      <trkpt lat="44.72474" lon="1.4026">
        <ele>238</ele>
        <time>2024-03-27T10:47:06Z</time>
      </trkpt>
      <trkpt lat="44.72454" lon="1.40302">
        <ele>235</ele>
        <time>2024-03-27T10:47:54Z</time>
      </trkpt>
      <trkpt lat="44.72429" lon="1.40347">
        <ele>232</ele>
        <time>2024-03-27T10:48:48Z</time>
      </trkpt>
      <trkpt lat="44.72414" lon="1.40364">
        <ele>231</ele>
        <time>2024-03-27T10:49:14Z</time>
      </trkpt>
      <trkpt lat="44.72393" lon="1.40376">
        <ele>233</ele>
        <time>2024-03-27T10:49:44Z</time>
      </trkpt>
      <trkpt lat="44.72372" lon="1.40384">
        <ele>234</ele>
        <time>2024-03-27T10:50:13Z</time>
      </trkpt>
      <trkpt lat="44.7235" lon="1.40408">
        <ele>236</ele>
        <time>2024-03-27T10:50:50Z</time>
      </trkpt>
      <trkpt lat="44.72333" lon="1.40432">
        <ele>238</ele>
        <time>2024-03-27T10:51:22Z</time>
      </trkpt>
      <trkpt lat="44.72321" lon="1.40449">
        <ele>239</ele>
        <time>2024-03-27T10:51:45Z</time>
      </trkpt>
      <trkpt lat="44.72303" lon="1.40488">
        <ele>241</ele>
        <time>2024-03-27T10:52:29Z</time>
      </trkpt>
      <trkpt lat="44.7229" lon="1.4053">
        <ele>244</ele>
        <time>2024-03-27T10:53:12Z</time>
      </trkpt>
      <trkpt lat="44.7228" lon="1.40576">
        <ele>246</ele>
        <time>2024-03-27T10:53:58Z</time>
      </trkpt>
      <trkpt lat="44.72272" lon="1.40602">
        <ele>247</ele>
        <time>2024-03-27T10:54:25Z</time>
      </trkpt>
      <trkpt lat="44.72254" lon="1.40623">
        <ele>248</ele>
        <time>2024-03-27T10:54:56Z</time>
      </trkpt>
      <trkpt lat="44.72242" lon="1.40632">
        <ele>247</ele>
        <time>2024-03-27T10:55:14Z</time>
      </trkpt>
      <trkpt lat="44.7225" lon="1.40653">
        <ele>248</ele>
        <time>2024-03-27T10:55:37Z</time>
      </trkpt>
      <trkpt lat="44.72242" lon="1.40632">
        <ele>247</ele>
        <time>2024-03-27T10:55:59Z</time>
      </trkpt>
      <trkpt lat="44.72225" lon="1.40646">
        <ele>244</ele>
        <time>2024-03-27T10:56:26Z</time>
      </trkpt>
      <trkpt lat="44.72197" lon="1.40661">
        <ele>240</ele>
        <time>2024-03-27T10:57:06Z</time>
      </trkpt>
      <trkpt lat="44.72177" lon="1.40668">
        <ele>238</ele>
        <time>2024-03-27T10:57:33Z</time>
      </trkpt>
      <trkpt lat="44.72131" lon="1.40709">
        <ele>234</ele>
        <time>2024-03-27T10:58:46Z</time>
      </trkpt>
      <trkpt lat="44.72095" lon="1.4074">
        <ele>230</ele>
        <time>2024-03-27T10:59:42Z</time>
      </trkpt>
      <trkpt lat="44.72047" lon="1.4077">
        <ele>229</ele>
        <time>2024-03-27T11:00:52Z</time>
      </trkpt>
      <trkpt lat="44.7202" lon="1.40777">
        <ele>228</ele>
        <time>2024-03-27T11:01:29Z</time>
      </trkpt>
      <trkpt lat="44.72018" lon="1.4076">
        <ele>224</ele>
        <time>2024-03-27T11:01:45Z</time>
      </trkpt>
      <trkpt lat="44.7202" lon="1.40777">
        <ele>228</ele>
        <time>2024-03-27T11:02:02Z</time>
      </trkpt>
      <trkpt lat="44.71993" lon="1.4078">
        <ele>227</ele>
        <time>2024-03-27T11:02:38Z</time>
      </trkpt>
      <trkpt lat="44.71958" lon="1.4077">
        <ele>224</ele>
        <time>2024-03-27T11:03:25Z</time>
      </trkpt>
      <trkpt lat="44.71921" lon="1.40768">
        <ele>224</ele>
        <time>2024-03-27T11:04:15Z</time>
      </trkpt>
      <trkpt lat="44.71889" lon="1.40777">
        <ele>222</ele>
        <time>2024-03-27T11:04:58Z</time>
      </trkpt>
      <trkpt lat="44.71886" lon="1.40779">
        <ele>222</ele>
        <time>2024-03-27T11:05:03Z</time>
      </trkpt>
      <trkpt lat="44.71849" lon="1.40807">
        <ele>222</ele>
        <time>2024-03-27T11:05:59Z</time>
      </trkpt>
      <trkpt lat="44.71813" lon="1.40864">
        <ele>225</ele>
        <time>2024-03-27T11:07:11Z</time>
      </trkpt>
      <trkpt lat="44.7177" lon="1.40974">
        <ele>229</ele>
        <time>2024-03-27T11:09:10Z</time>
      </trkpt>
      <trkpt lat="44.71765" lon="1.40995">
        <ele>230</ele>
        <time>2024-03-27T11:09:31Z</time>
      </trkpt>
      <trkpt lat="44.71743" lon="1.41099">
        <ele>233</ele>
        <time>2024-03-27T11:11:14Z</time>
      </trkpt>
      <trkpt lat="44.71738" lon="1.41154">
        <ele>236</ele>
        <time>2024-03-27T11:12:07Z</time>
      </trkpt>
      <trkpt lat="44.71733" lon="1.41207">
        <ele>237</ele>
        <time>2024-03-27T11:12:57Z</time>
      </trkpt>
      <trkpt lat="44.71727" lon="1.41246">
        <ele>236</ele>
        <time>2024-03-27T11:13:35Z</time>
      </trkpt>
      <trkpt lat="44.71723" lon="1.41287">
        <ele>235</ele>
        <time>2024-03-27T11:14:14Z</time>
      </trkpt>
      <trkpt lat="44.71717" lon="1.41309">
        <ele>234</ele>
        <time>2024-03-27T11:14:37Z</time>
      </trkpt>
      <trkpt lat="44.7172" lon="1.41325">
        <ele>233</ele>
        <time>2024-03-27T11:14:52Z</time>
      </trkpt>
      <trkpt lat="44.71721" lon="1.41356">
        <ele>234</ele>
        <time>2024-03-27T11:15:22Z</time>
      </trkpt>
      <trkpt lat="44.71714" lon="1.41365">
        <ele>234</ele>
        <time>2024-03-27T11:15:35Z</time>
      </trkpt>
      <trkpt lat="44.71704" lon="1.41396">
        <ele>233</ele>
        <time>2024-03-27T11:16:07Z</time>
      </trkpt>
      <trkpt lat="44.71683" lon="1.41527">
        <ele>233</ele>
        <time>2024-03-27T11:18:14Z</time>
      </trkpt>
      <trkpt lat="44.71681" lon="1.41544">
        <ele>232</ele>
        <time>2024-03-27T11:18:31Z</time>
      </trkpt>
      <trkpt lat="44.71671" lon="1.41576">
        <ele>231</ele>
        <time>2024-03-27T11:19:04Z</time>
      </trkpt>
      <trkpt lat="44.71648" lon="1.41615">
        <ele>233</ele>
        <time>2024-03-27T11:19:52Z</time>
      </trkpt>
      <trkpt lat="44.71648" lon="1.41625">
        <ele>233</ele>
        <time>2024-03-27T11:20:01Z</time>
      </trkpt>
      <trkpt lat="44.71648" lon="1.41615">
        <ele>233</ele>
        <time>2024-03-27T11:20:11Z</time>
      </trkpt>
      <trkpt lat="44.71626" lon="1.41619">
        <ele>233</ele>
        <time>2024-03-27T11:20:40Z</time>
      </trkpt>
      <trkpt lat="44.71578" lon="1.41619">
        <ele>232</ele>
        <time>2024-03-27T11:21:44Z</time>
      </trkpt>
      <trkpt lat="44.71577" lon="1.41621">
        <ele>232</ele>
        <time>2024-03-27T11:21:47Z</time>
      </trkpt>
      <trkpt lat="44.71549" lon="1.41664">
        <ele>234</ele>
        <time>2024-03-27T11:22:42Z</time>
      </trkpt>
      <trkpt lat="44.71546" lon="1.41668">
        <ele>234</ele>
        <time>2024-03-27T11:22:48Z</time>
      </trkpt>
      <trkpt lat="44.71514" lon="1.41677">
        <ele>236</ele>
        <time>2024-03-27T11:23:31Z</time>
      </trkpt>
      <trkpt lat="44.71485" lon="1.41662">
        <ele>239</ele>
        <time>2024-03-27T11:24:12Z</time>
      </trkpt>
      <trkpt lat="44.7148" lon="1.41656">
        <ele>240</ele>
        <time>2024-03-27T11:24:21Z</time>
      </trkpt>
      <trkpt lat="44.7144" lon="1.41612">
        <ele>246</ele>
        <time>2024-03-27T11:25:29Z</time>
      </trkpt>
      <trkpt lat="44.71426" lon="1.41563">
        <ele>248</ele>
        <time>2024-03-27T11:26:19Z</time>
      </trkpt>
      <trkpt lat="44.71403" lon="1.41516">
        <ele>254</ele>
        <time>2024-03-27T11:27:13Z</time>
      </trkpt>
      <trkpt lat="44.71401" lon="1.41514">
        <ele>254</ele>
        <time>2024-03-27T11:27:16Z</time>
      </trkpt>
      <trkpt lat="44.71331" lon="1.41524">
        <ele>264</ele>
        <time>2024-03-27T11:28:50Z</time>
      </trkpt>
      <trkpt lat="44.71276" lon="1.4155">
        <ele>271</ele>
        <time>2024-03-27T11:30:08Z</time>
      </trkpt>
      <trkpt lat="44.71229" lon="1.41557">
        <ele>278</ele>
        <time>2024-03-27T11:31:11Z</time>
      </trkpt>
      <trkpt lat="44.71176" lon="1.41591">
        <ele>283</ele>
        <time>2024-03-27T11:32:28Z</time>
      </trkpt>
      <trkpt lat="44.71141" lon="1.41579">
        <ele>288</ele>
        <time>2024-03-27T11:33:16Z</time>
      </trkpt>
      <trkpt lat="44.71115" lon="1.4157">
        <ele>292</ele>
        <time>2024-03-27T11:33:52Z</time>
      </trkpt>
      <trkpt lat="44.71075" lon="1.41537">
        <ele>297</ele>
        <time>2024-03-27T11:34:54Z</time>
      </trkpt>
      <trkpt lat="44.71039" lon="1.41484">
        <ele>302</ele>
        <time>2024-03-27T11:36:04Z</time>
      </trkpt>
      <trkpt lat="44.71008" lon="1.41451">
        <ele>305</ele>
        <time>2024-03-27T11:36:55Z</time>
      </trkpt>
      <trkpt lat="44.70977" lon="1.41431">
        <ele>307</ele>
        <time>2024-03-27T11:37:41Z</time>
      </trkpt>
      <trkpt lat="44.70963" lon="1.41422">
        <ele>308</ele>
        <time>2024-03-27T11:38:02Z</time>
      </trkpt>
      <trkpt lat="44.7094" lon="1.41408">
        <ele>310</ele>
        <time>2024-03-27T11:38:35Z</time>
      </trkpt>
      <trkpt lat="44.70915" lon="1.41383">
        <ele>313</ele>
        <time>2024-03-27T11:39:16Z</time>
      </trkpt>
      <trkpt lat="44.7088" lon="1.41339">
        <ele>320</ele>
        <time>2024-03-27T11:40:19Z</time>
      </trkpt>
      <trkpt lat="44.70853" lon="1.41285">
        <ele>325</ele>
        <time>2024-03-27T11:41:21Z</time>
      </trkpt>
      <trkpt lat="44.7085" lon="1.4127">
        <ele>326</ele>
        <time>2024-03-27T11:41:36Z</time>
      </trkpt>
      <trkpt lat="44.70844" lon="1.41237">
        <ele>326</ele>
        <time>2024-03-27T11:42:08Z</time>
      </trkpt>
      <trkpt lat="44.70843" lon="1.41213">
        <ele>327</ele>
        <time>2024-03-27T11:42:31Z</time>
      </trkpt>
      <trkpt lat="44.70818" lon="1.41189">
        <ele>325</ele>
        <time>2024-03-27T11:43:11Z</time>
      </trkpt>
      <trkpt lat="44.70797" lon="1.41168">
        <ele>323</ele>
        <time>2024-03-27T11:43:46Z</time>
      </trkpt>
      <trkpt lat="44.7077" lon="1.41162">
        <ele>320</ele>
        <time>2024-03-27T11:44:22Z</time>
      </trkpt>
      <trkpt lat="44.70749" lon="1.41158">
        <ele>318</ele>
        <time>2024-03-27T11:44:51Z</time>
      </trkpt>
      <trkpt lat="44.70714" lon="1.41161">
        <ele>313</ele>
        <time>2024-03-27T11:45:37Z</time>
      </trkpt>
      <trkpt lat="44.70678" lon="1.41179">
        <ele>309</ele>
        <time>2024-03-27T11:46:28Z</time>
      </trkpt>
      <trkpt lat="44.70659" lon="1.41191">
        <ele>307</ele>
        <time>2024-03-27T11:46:56Z</time>
      </trkpt>
      <trkpt lat="44.70623" lon="1.41182">
        <ele>301</ele>
        <time>2024-03-27T11:47:45Z</time>
      </trkpt>
      <trkpt lat="44.70599" lon="1.41166">
        <ele>299</ele>
        <time>2024-03-27T11:48:20Z</time>
      </trkpt>
      <trkpt lat="44.70594" lon="1.41179">
        <ele>297</ele>
        <time>2024-03-27T11:48:34Z</time>
      </trkpt>
      <trkpt lat="44.70599" lon="1.41166">
        <ele>299</ele>
        <time>2024-03-27T11:48:48Z</time>
      </trkpt>
      <trkpt lat="44.70594" lon="1.41161">
        <ele>299</ele>
        <time>2024-03-27T11:48:57Z</time>
      </trkpt>
      <trkpt lat="44.70561" lon="1.41198">
        <ele>294</ele>
        <time>2024-03-27T11:49:53Z</time>
      </trkpt>
      <trkpt lat="44.70533" lon="1.41217">
        <ele>289</ele>
        <time>2024-03-27T11:50:34Z</time>
      </trkpt>
      <trkpt lat="44.70495" lon="1.41254">
        <ele>276</ele>
        <time>2024-03-27T11:51:36Z</time>
      </trkpt>
      <trkpt lat="44.70482" lon="1.41264">
        <ele>274</ele>
        <time>2024-03-27T11:51:56Z</time>
      </trkpt>
      <trkpt lat="44.70458" lon="1.41272">
        <ele>270</ele>
        <time>2024-03-27T11:52:29Z</time>
      </trkpt>
      <trkpt lat="44.70444" lon="1.41274">
        <ele>269</ele>
        <time>2024-03-27T11:52:48Z</time>
      </trkpt>
      <trkpt lat="44.70415" lon="1.41272">
        <ele>266</ele>
        <time>2024-03-27T11:53:26Z</time>
      </trkpt>
      <trkpt lat="44.70392" lon="1.41281">
        <ele>263</ele>
        <time>2024-03-27T11:53:58Z</time>
      </trkpt>
      <trkpt lat="44.70361" lon="1.4129">
        <ele>259</ele>
        <time>2024-03-27T11:54:40Z</time>
      </trkpt>
      <trkpt lat="44.70261" lon="1.41285">
        <ele>254</ele>
        <time>2024-03-27T11:56:54Z</time>
      </trkpt>
      <trkpt lat="44.70193" lon="1.41286">
        <ele>248</ele>
        <time>2024-03-27T11:58:25Z</time>
      </trkpt>
      <trkpt lat="44.70171" lon="1.41282">
        <ele>246</ele>
        <time>2024-03-27T11:58:54Z</time>
      </trkpt>
      <trkpt lat="44.70172" lon="1.41284">
        <ele>246</ele>
        <time>2024-03-27T11:58:57Z</time>
      </trkpt>
      <trkpt lat="44.70182" lon="1.41287">
        <ele>246</ele>
        <time>2024-03-27T11:59:10Z</time>
      </trkpt>
      <trkpt lat="44.70244" lon="1.41316">
        <ele>246</ele>
        <time>2024-03-27T12:00:37Z</time>
      </trkpt>
      <trkpt lat="44.70301" lon="1.41332">
        <ele>245</ele>
        <time>2024-03-27T12:01:55Z</time>
      </trkpt>
      <trkpt lat="44.70244" lon="1.41316">
        <ele>246</ele>
        <time>2024-03-27T12:03:13Z</time>
      </trkpt>
      <trkpt lat="44.70182" lon="1.41287">
        <ele>246</ele>
        <time>2024-03-27T12:04:40Z</time>
      </trkpt>
      <trkpt lat="44.70172" lon="1.41284">
        <ele>246</ele>
        <time>2024-03-27T12:04:53Z</time>
      </trkpt>
      <trkpt lat="44.70171" lon="1.41282">
        <ele>246</ele>
        <time>2024-03-27T12:04:56Z</time>
      </trkpt>
      <trkpt lat="44.70128" lon="1.41273">
        <ele>241</ele>
        <time>2024-03-27T12:05:54Z</time>
      </trkpt>
      <trkpt lat="44.70071" lon="1.41268">
        <ele>233</ele>
        <time>2024-03-27T12:07:10Z</time>
      </trkpt>
      <trkpt lat="44.70068" lon="1.41269">
        <ele>233</ele>
        <time>2024-03-27T12:07:14Z</time>
      </trkpt>
      <trkpt lat="44.70047" lon="1.41299">
        <ele>228</ele>
        <time>2024-03-27T12:07:54Z</time>
      </trkpt>
      <trkpt lat="44.7004" lon="1.41307">
        <ele>227</ele>
        <time>2024-03-27T12:08:06Z</time>
      </trkpt>
      <trkpt lat="44.70029" lon="1.41314">
        <ele>225</ele>
        <time>2024-03-27T12:08:22Z</time>
      </trkpt>
      <trkpt lat="44.70008" lon="1.41257">
        <ele>224</ele>
        <time>2024-03-27T12:09:23Z</time>
      </trkpt>
      <trkpt lat="44.69988" lon="1.41106">
        <ele>227</ele>
        <time>2024-03-27T12:11:49Z</time>
      </trkpt>
      <trkpt lat="44.69988" lon="1.41039">
        <ele>227</ele>
        <time>2024-03-27T12:12:52Z</time>
      </trkpt>
      <trkpt lat="44.69985" lon="1.41027">
        <ele>226</ele>
        <time>2024-03-27T12:13:04Z</time>
      </trkpt>
      <trkpt lat="44.69977" lon="1.41008">
        <ele>225</ele>
        <time>2024-03-27T12:13:25Z</time>
      </trkpt>
      <trkpt lat="44.69989" lon="1.40998">
        <ele>227</ele>
        <time>2024-03-27T12:13:44Z</time>
      </trkpt>
      <trkpt lat="44.70006" lon="1.41004">
        <ele>230</ele>
        <time>2024-03-27T12:14:07Z</time>
      </trkpt>
      <trkpt lat="44.70006" lon="1.41015">
        <ele>230</ele>
        <time>2024-03-27T12:14:18Z</time>
      </trkpt>
      <trkpt lat="44.70006" lon="1.41004">
        <ele>230</ele>
        <time>2024-03-27T12:14:28Z</time>
      </trkpt>
      <trkpt lat="44.69989" lon="1.40998">
        <ele>227</ele>
        <time>2024-03-27T12:14:52Z</time>
      </trkpt>
      <trkpt lat="44.69998" lon="1.40983">
        <ele>229</ele>
        <time>2024-03-27T12:15:10Z</time>
      </trkpt>
      <trkpt lat="44.69999" lon="1.40974">
        <ele>230</ele>
        <time>2024-03-27T12:15:19Z</time>
      </trkpt>
      <trkpt lat="44.69997" lon="1.40964">
        <ele>231</ele>
        <time>2024-03-27T12:15:29Z</time>
      </trkpt>
      <trkpt lat="44.69996" lon="1.40956">
        <ele>231</ele>
        <time>2024-03-27T12:15:36Z</time>
      </trkpt>
      <trkpt lat="44.69997" lon="1.40945">
        <ele>232</ele>
        <time>2024-03-27T12:15:47Z</time>
      </trkpt>
      <trkpt lat="44.69995" lon="1.40942">
        <ele>232</ele>
        <time>2024-03-27T12:15:51Z</time>
      </trkpt>
      <trkpt lat="44.69998" lon="1.40928">
        <ele>234</ele>
        <time>2024-03-27T12:16:05Z</time>
      </trkpt>
      <trkpt lat="44.70004" lon="1.40914">
        <ele>236</ele>
        <time>2024-03-27T12:16:20Z</time>
      </trkpt>
      <trkpt lat="44.70018" lon="1.40899">
        <ele>242</ele>
        <time>2024-03-27T12:16:44Z</time>
      </trkpt>
      <trkpt lat="44.70042" lon="1.4088">
        <ele>249</ele>
        <time>2024-03-27T12:17:20Z</time>
      </trkpt>
      <trkpt lat="44.70069" lon="1.40866">
        <ele>253</ele>
        <time>2024-03-27T12:17:59Z</time>
      </trkpt>
      <trkpt lat="44.70087" lon="1.40861">
        <ele>254</ele>
        <time>2024-03-27T12:18:23Z</time>
      </trkpt>
      <trkpt lat="44.70103" lon="1.40862">
        <ele>257</ele>
        <time>2024-03-27T12:18:45Z</time>
      </trkpt>
      <trkpt lat="44.70135" lon="1.40869">
        <ele>262</ele>
        <time>2024-03-27T12:19:28Z</time>
      </trkpt>
      <trkpt lat="44.7015" lon="1.40868">
        <ele>264</ele>
        <time>2024-03-27T12:19:48Z</time>
      </trkpt>
      <trkpt lat="44.70159" lon="1.40863">
        <ele>266</ele>
        <time>2024-03-27T12:20:01Z</time>
      </trkpt>
      <trkpt lat="44.70166" lon="1.40857">
        <ele>268</ele>
        <time>2024-03-27T12:20:12Z</time>
      </trkpt>
      <trkpt lat="44.70171" lon="1.40848">
        <ele>269</ele>
        <time>2024-03-27T12:20:23Z</time>
      </trkpt>
      <trkpt lat="44.70167" lon="1.40841">
        <ele>269</ele>
        <time>2024-03-27T12:20:31Z</time>
      </trkpt>
      <trkpt lat="44.70158" lon="1.40832">
        <ele>268</ele>
        <time>2024-03-27T12:20:46Z</time>
      </trkpt>
      <trkpt lat="44.70156" lon="1.40821">
        <ele>270</ele>
        <time>2024-03-27T12:20:57Z</time>
      </trkpt>
      <trkpt lat="44.70155" lon="1.4071">
        <ele>287</ele>
        <time>2024-03-27T12:22:42Z</time>
      </trkpt>
      <trkpt lat="44.70159" lon="1.40681">
        <ele>291</ele>
        <time>2024-03-27T12:23:10Z</time>
      </trkpt>
      <trkpt lat="44.70163" lon="1.4067">
        <ele>292</ele>
        <time>2024-03-27T12:23:22Z</time>
      </trkpt>
      <trkpt lat="44.70171" lon="1.4066">
        <ele>293</ele>
        <time>2024-03-27T12:23:36Z</time>
      </trkpt>
      <trkpt lat="44.70186" lon="1.40657">
        <ele>295</ele>
        <time>2024-03-27T12:23:56Z</time>
      </trkpt>
      <trkpt lat="44.70194" lon="1.40652">
        <ele>297</ele>
        <time>2024-03-27T12:24:08Z</time>
      </trkpt>
      <trkpt lat="44.70204" lon="1.40639">
        <ele>299</ele>
        <time>2024-03-27T12:24:26Z</time>
      </trkpt>
      <trkpt lat="44.70213" lon="1.4062">
        <ele>301</ele>
        <time>2024-03-27T12:24:48Z</time>
      </trkpt>
      <trkpt lat="44.70219" lon="1.40602">
        <ele>303</ele>
        <time>2024-03-27T12:25:06Z</time>
      </trkpt>
      <trkpt lat="44.70225" lon="1.40577">
        <ele>305</ele>
        <time>2024-03-27T12:25:31Z</time>
      </trkpt>
      <trkpt lat="44.70221" lon="1.40535">
        <ele>306</ele>
        <time>2024-03-27T12:26:12Z</time>
      </trkpt>
      <trkpt lat="44.70222" lon="1.40531">
        <ele>306</ele>
        <time>2024-03-27T12:26:16Z</time>
      </trkpt>
      <trkpt lat="44.70244" lon="1.40473">
        <ele>308</ele>
        <time>2024-03-27T12:27:18Z</time>
      </trkpt>
      <trkpt lat="44.70256" lon="1.40478">
        <ele>308</ele>
        <time>2024-03-27T12:27:35Z</time>
      </trkpt>
      <trkpt lat="44.70267" lon="1.40482">
        <ele>309</ele>
        <time>2024-03-27T12:27:50Z</time>
      </trkpt>
      <trkpt lat="44.70272" lon="1.40482">
        <ele>309</ele>
        <time>2024-03-27T12:27:57Z</time>
      </trkpt>
      <trkpt lat="44.70293" lon="1.40471">
        <ele>310</ele>
        <time>2024-03-27T12:28:27Z</time>
      </trkpt>
      <trkpt lat="44.70305" lon="1.40472">
        <ele>310</ele>
        <time>2024-03-27T12:28:43Z</time>
      </trkpt>
      <trkpt lat="44.70313" lon="1.40477">
        <ele>311</ele>
        <time>2024-03-27T12:28:54Z</time>
      </trkpt>
      <trkpt lat="44.70346" lon="1.4057">
        <ele>313</ele>
        <time>2024-03-27T12:30:33Z</time>
      </trkpt>
      <trkpt lat="44.7038" lon="1.40657">
        <ele>309</ele>
        <time>2024-03-27T12:32:07Z</time>
      </trkpt>
      <trkpt lat="44.70427" lon="1.40763">
        <ele>313</ele>
        <time>2024-03-27T12:34:05Z</time>
      </trkpt>
      <trkpt lat="44.70429" lon="1.40773">
        <ele>312</ele>
        <time>2024-03-27T12:34:15Z</time>
      </trkpt>
      <trkpt lat="44.7043" lon="1.40799">
        <ele>311</ele>
        <time>2024-03-27T12:34:40Z</time>
      </trkpt>
      <trkpt lat="44.70433" lon="1.40808">
        <ele>311</ele>
        <time>2024-03-27T12:34:49Z</time>
      </trkpt>
      <trkpt lat="44.70441" lon="1.40818">
        <ele>310</ele>
        <time>2024-03-27T12:35:04Z</time>
      </trkpt>
      <trkpt lat="44.70452" lon="1.40826">
        <ele>310</ele>
        <time>2024-03-27T12:35:20Z</time>
      </trkpt>
      <trkpt lat="44.70466" lon="1.40833">
        <ele>310</ele>
        <time>2024-03-27T12:35:40Z</time>
      </trkpt>
      <trkpt lat="44.70464" lon="1.4084">
        <ele>310</ele>
        <time>2024-03-27T12:35:47Z</time>
      </trkpt>
      <trkpt lat="44.70453" lon="1.40852">
        <ele>309</ele>
        <time>2024-03-27T12:36:06Z</time>
      </trkpt>
      <trkpt lat="44.70464" lon="1.4084">
        <ele>310</ele>
        <time>2024-03-27T12:36:24Z</time>
      </trkpt>
      <trkpt lat="44.70466" lon="1.40833">
        <ele>310</ele>
        <time>2024-03-27T12:36:32Z</time>
      </trkpt>
      <trkpt lat="44.70509" lon="1.40816">
        <ele>311</ele>
        <time>2024-03-27T12:37:31Z</time>
      </trkpt>
      <trkpt lat="44.70549" lon="1.40807">
        <ele>312</ele>
        <time>2024-03-27T12:38:25Z</time>
      </trkpt>
      <trkpt lat="44.70568" lon="1.40806">
        <ele>313</ele>
        <time>2024-03-27T12:38:51Z</time>
      </trkpt>
      <trkpt lat="44.70573" lon="1.40807">
        <ele>313</ele>
        <time>2024-03-27T12:38:57Z</time>
      </trkpt>
      <trkpt lat="44.70578" lon="1.40813">
        <ele>314</ele>
        <time>2024-03-27T12:39:06Z</time>
      </trkpt>
      <trkpt lat="44.70585" lon="1.40795">
        <ele>314</ele>
        <time>2024-03-27T12:39:26Z</time>
      </trkpt>
      <trkpt lat="44.7062" lon="1.40805">
        <ele>314</ele>
        <time>2024-03-27T12:40:13Z</time>
      </trkpt>
      <trkpt lat="44.70671" lon="1.40797">
        <ele>313</ele>
        <time>2024-03-27T12:41:22Z</time>
      </trkpt>
      <trkpt lat="44.70753" lon="1.40766">
        <ele>306</ele>
        <time>2024-03-27T12:43:15Z</time>
      </trkpt>
      <trkpt lat="44.70844" lon="1.40736">
        <ele>303</ele>
        <time>2024-03-27T12:45:20Z</time>
      </trkpt>
      <trkpt lat="44.70936" lon="1.4078">
        <ele>309</ele>
        <time>2024-03-27T12:47:29Z</time>
      </trkpt>
      <trkpt lat="44.70951" lon="1.4078">
        <ele>308</ele>
        <time>2024-03-27T12:47:49Z</time>
      </trkpt>
      <trkpt lat="44.70971" lon="1.4078">
        <ele>306</ele>
        <time>2024-03-27T12:48:16Z</time>
      </trkpt>
      <trkpt lat="44.70982" lon="1.40773">
        <ele>305</ele>
        <time>2024-03-27T12:48:32Z</time>
      </trkpt>
      <trkpt lat="44.71006" lon="1.40763">
        <ele>302</ele>
        <time>2024-03-27T12:49:06Z</time>
      </trkpt>
      <trkpt lat="44.71039" lon="1.40759">
        <ele>299</ele>
        <time>2024-03-27T12:49:50Z</time>
      </trkpt>
      <trkpt lat="44.71049" lon="1.40745">
        <ele>298</ele>
        <time>2024-03-27T12:50:09Z</time>
      </trkpt>
      <trkpt lat="44.7109" lon="1.40728">
        <ele>294</ele>
        <time>2024-03-27T12:51:06Z</time>
      </trkpt>
      <trkpt lat="44.71129" lon="1.40704">
        <ele>290</ele>
        <time>2024-03-27T12:52:02Z</time>
      </trkpt>
      <trkpt lat="44.71201" lon="1.4064">
        <ele>285</ele>
        <time>2024-03-27T12:53:56Z</time>
      </trkpt>
      <trkpt lat="44.7131" lon="1.40529">
        <ele>280</ele>
        <time>2024-03-27T12:56:56Z</time>
      </trkpt>
      <trkpt lat="44.71368" lon="1.40486">
        <ele>278</ele>
        <time>2024-03-27T12:58:23Z</time>
      </trkpt>
      <trkpt lat="44.7141" lon="1.40449">
        <ele>275</ele>
        <time>2024-03-27T12:59:29Z</time>
      </trkpt>
      <trkpt lat="44.71489" lon="1.40361">
        <ele>265</ele>
        <time>2024-03-27T13:01:44Z</time>
      </trkpt>
      <trkpt lat="44.71539" lon="1.4031">
        <ele>258</ele>
        <time>2024-03-27T13:03:06Z</time>
      </trkpt>
      <trkpt lat="44.71553" lon="1.40294">
        <ele>257</ele>
        <time>2024-03-27T13:03:30Z</time>
      </trkpt>
      <trkpt lat="44.71561" lon="1.40298">
        <ele>256</ele>
        <time>2024-03-27T13:03:42Z</time>
      </trkpt>
      <trkpt lat="44.71602" lon="1.40285">
        <ele>253</ele>
        <time>2024-03-27T13:04:38Z</time>
      </trkpt>
      <trkpt lat="44.71647" lon="1.40261">
        <ele>251</ele>
        <time>2024-03-27T13:05:42Z</time>
      </trkpt>
      <trkpt lat="44.71669" lon="1.40226">
        <ele>250</ele>
        <time>2024-03-27T13:06:26Z</time>
      </trkpt>
      <trkpt lat="44.71679" lon="1.40204">
        <ele>249</ele>
        <time>2024-03-27T13:06:51Z</time>
      </trkpt>
      <trkpt lat="44.71736" lon="1.40133">
        <ele>244</ele>
        <time>2024-03-27T13:08:33Z</time>
      </trkpt>
      <trkpt lat="44.71772" lon="1.40073">
        <ele>235</ele>
        <time>2024-03-27T13:09:47Z</time>
      </trkpt>
      <trkpt lat="44.71867" lon="1.39948">
        <ele>220</ele>
        <time>2024-03-27T13:12:41Z</time>
      </trkpt>
      <trkpt lat="44.71933" lon="1.39885">
        <ele>207</ele>
        <time>2024-03-27T13:14:27Z</time>
      </trkpt>
      <trkpt lat="44.71957" lon="1.39855">
        <ele>205</ele>
        <time>2024-03-27T13:15:10Z</time>
      </trkpt>
      <trkpt lat="44.71955" lon="1.39859">
        <ele>205</ele>
        <time>2024-03-27T13:15:14Z</time>
      </trkpt>
      <trkpt lat="44.71966" lon="1.39842">
        <ele>204</ele>
        <time>2024-03-27T13:15:36Z</time>
      </trkpt>
      <trkpt lat="44.71972" lon="1.39824">
        <ele>203</ele>
        <time>2024-03-27T13:15:55Z</time>
      </trkpt>
      <trkpt lat="44.71984" lon="1.39808">
        <ele>203</ele>
        <time>2024-03-27T13:16:17Z</time>
      </trkpt>
      <trkpt lat="44.71992" lon="1.39801">
        <ele>202</ele>
        <time>2024-03-27T13:16:30Z</time>
      </trkpt>
      <trkpt lat="44.72015" lon="1.39798">
        <ele>201</ele>
        <time>2024-03-27T13:17:01Z</time>
      </trkpt>
      <trkpt lat="44.72047" lon="1.39799">
        <ele>201</ele>
        <time>2024-03-27T13:17:43Z</time>
      </trkpt>
      <trkpt lat="44.72059" lon="1.39793">
        <ele>201</ele>
        <time>2024-03-27T13:18:00Z</time>
      </trkpt>
      <trkpt lat="44.72096" lon="1.39743">
        <ele>200</ele>
        <time>2024-03-27T13:19:09Z</time>
      </trkpt>
      <trkpt lat="44.72101" lon="1.39736">
        <ele>200</ele>
        <time>2024-03-27T13:19:18Z</time>
      </trkpt>
      <trkpt lat="44.7213" lon="1.39697">
        <ele>201</ele>
        <time>2024-03-27T13:20:12Z</time>
      </trkpt>
      <trkpt lat="44.72147" lon="1.39683">
        <ele>202</ele>
        <time>2024-03-27T13:20:38Z</time>
      </trkpt>
      <trkpt lat="44.72193" lon="1.3967">
        <ele>204</ele>
        <time>2024-03-27T13:21:41Z</time>
      </trkpt>
      <trkpt lat="44.72239" lon="1.39669">
        <ele>207</ele>
        <time>2024-03-27T13:22:42Z</time>
      </trkpt>
      <trkpt lat="44.72296" lon="1.39643">
        <ele>213</ele>
        <time>2024-03-27T13:24:02Z</time>
      </trkpt>
      <trkpt lat="44.72306" lon="1.39642">
        <ele>215</ele>
        <time>2024-03-27T13:24:15Z</time>
      </trkpt>
      <trkpt lat="44.72424" lon="1.39671">
        <ele>221</ele>
        <time>2024-03-27T13:26:55Z</time>
      </trkpt>
      <trkpt lat="44.72438" lon="1.39678">
        <ele>222</ele>
        <time>2024-03-27T13:27:15Z</time>
      </trkpt>
      <trkpt lat="44.72458" lon="1.39681">
        <ele>224</ele>
        <time>2024-03-27T13:27:42Z</time>
      </trkpt>
      <trkpt lat="44.72469" lon="1.3968">
        <ele>225</ele>
        <time>2024-03-27T13:27:56Z</time>
      </trkpt>
      <trkpt lat="44.72481" lon="1.39666">
        <ele>228</ele>
        <time>2024-03-27T13:28:17Z</time>
      </trkpt>
      <trkpt lat="44.72483" lon="1.39663">
        <ele>228</ele>
        <time>2024-03-27T13:28:21Z</time>
      </trkpt>
      <trkpt lat="44.72483" lon="1.39644">
        <ele>230</ele>
        <time>2024-03-27T13:28:39Z</time>
      </trkpt>
      <trkpt lat="44.72521" lon="1.39651">
        <ele>231</ele>
        <time>2024-03-27T13:29:30Z</time>
      </trkpt>
      <trkpt lat="44.72551" lon="1.39663">
        <ele>230</ele>
        <time>2024-03-27T13:30:12Z</time>
      </trkpt>
      <trkpt lat="44.726" lon="1.39661">
        <ele>232</ele>
        <time>2024-03-27T13:31:17Z</time>
      </trkpt>
      <trkpt lat="44.72655" lon="1.39696">
        <ele>234</ele>
        <time>2024-03-27T13:32:38Z</time>
      </trkpt>
      <trkpt lat="44.7268" lon="1.39721">
        <ele>236</ele>
        <time>2024-03-27T13:33:19Z</time>
      </trkpt>
      <trkpt lat="44.72728" lon="1.39745">
        <ele>243</ele>
        <time>2024-03-27T13:34:27Z</time>
      </trkpt>
      <trkpt lat="44.72788" lon="1.39795">
        <ele>246</ele>
        <time>2024-03-27T13:36:00Z</time>
      </trkpt>
      <trkpt lat="44.72821" lon="1.39808">
        <ele>249</ele>
        <time>2024-03-27T13:36:46Z</time>
      </trkpt>
      <trkpt lat="44.72822" lon="1.39806">
        <ele>249</ele>
        <time>2024-03-27T13:36:48Z</time>
      </trkpt>
      <trkpt lat="44.72831" lon="1.39795">
        <ele>251</ele>
        <time>2024-03-27T13:37:04Z</time>
      </trkpt>
      <trkpt lat="44.72853" lon="1.3978">
        <ele>254</ele>
        <time>2024-03-27T13:37:36Z</time>
      </trkpt>
      <trkpt lat="44.72864" lon="1.39774">
        <ele>257</ele>
        <time>2024-03-27T13:37:52Z</time>
      </trkpt>
      <trkpt lat="44.72881" lon="1.39772">
        <ele>259</ele>
        <time>2024-03-27T13:38:15Z</time>
      </trkpt>
      <trkpt lat="44.7295" lon="1.39784">
        <ele>265</ele>
        <time>2024-03-27T13:39:48Z</time>
      </trkpt>
      <trkpt lat="44.72959" lon="1.39788">
        <ele>264</ele>
        <time>2024-03-27T13:40:00Z</time>
      </trkpt>
      <trkpt lat="44.72965" lon="1.39793">
        <ele>264</ele>
        <time>2024-03-27T13:40:10Z</time>
      </trkpt>
      <trkpt lat="44.73026" lon="1.39757">
        <ele>261</ele>
        <time>2024-03-27T13:41:38Z</time>
      </trkpt>
      <trkpt lat="44.73035" lon="1.39751">
        <ele>259</ele>
        <time>2024-03-27T13:41:51Z</time>
      </trkpt>
      <trkpt lat="44.73054" lon="1.39732">
        <ele>256</ele>
        <time>2024-03-27T13:42:22Z</time>
      </trkpt>
      <trkpt lat="44.7307" lon="1.39715">
        <ele>253</ele>
        <time>2024-03-27T13:42:49Z</time>
      </trkpt>
      <trkpt lat="44.73079" lon="1.39701">
        <ele>251</ele>
        <time>2024-03-27T13:43:07Z</time>
      </trkpt>
      <trkpt lat="44.73115" lon="1.39614">
        <ele>250</ele>
        <time>2024-03-27T13:44:42Z</time>
      </trkpt>
      <trkpt lat="44.73123" lon="1.39599">
        <ele>249</ele>
        <time>2024-03-27T13:45:00Z</time>
      </trkpt>
      <trkpt lat="44.73162" lon="1.39548">
        <ele>244</ele>
        <time>2024-03-27T13:46:11Z</time>
      </trkpt>
      <trkpt lat="44.73169" lon="1.39536">
        <ele>244</ele>
        <time>2024-03-27T13:46:26Z</time>
      </trkpt>
      <trkpt lat="44.73176" lon="1.39515">
        <ele>244</ele>
        <time>2024-03-27T13:46:48Z</time>
      </trkpt>
      <trkpt lat="44.73191" lon="1.39442">
        <ele>239</ele>
        <time>2024-03-27T13:48:00Z</time>
      </trkpt>
      <trkpt lat="44.7319" lon="1.39438">
        <ele>239</ele>
        <time>2024-03-27T13:48:04Z</time>
      </trkpt>
      <trkpt lat="44.73189" lon="1.3943">
        <ele>239</ele>
        <time>2024-03-27T13:48:12Z</time>
      </trkpt>
      <trkpt lat="44.73186" lon="1.39418">
        <ele>239</ele>
        <time>2024-03-27T13:48:24Z</time>
      </trkpt>
      <trkpt lat="44.73177" lon="1.39397">
        <ele>237</ele>
        <time>2024-03-27T13:48:47Z</time>
      </trkpt>
      <trkpt lat="44.73163" lon="1.39372">
        <ele>236</ele>
        <time>2024-03-27T13:49:17Z</time>
      </trkpt>
      <trkpt lat="44.73159" lon="1.39359">
        <ele>235</ele>
        <time>2024-03-27T13:49:31Z</time>
      </trkpt>
      <trkpt lat="44.73159" lon="1.39334">
        <ele>232</ele>
        <time>2024-03-27T13:49:54Z</time>
      </trkpt>
      <trkpt lat="44.73167" lon="1.39254">
        <ele>225</ele>
        <time>2024-03-27T13:51:11Z</time>
      </trkpt>
      <trkpt lat="44.73168" lon="1.39225">
        <ele>223</ele>
        <time>2024-03-27T13:51:38Z</time>
      </trkpt>
      <trkpt lat="44.73167" lon="1.39189">
        <ele>221</ele>
        <time>2024-03-27T13:52:13Z</time>
      </trkpt>
      <trkpt lat="44.73169" lon="1.39161">
        <ele>218</ele>
        <time>2024-03-27T13:52:39Z</time>
      </trkpt>
      <trkpt lat="44.73173" lon="1.39149">
        <ele>216</ele>
        <time>2024-03-27T13:52:52Z</time>
      </trkpt>
      <trkpt lat="44.73177" lon="1.39145">
        <ele>214</ele>
        <time>2024-03-27T13:52:58Z</time>
      </trkpt>
      <trkpt lat="44.73182" lon="1.39145">
        <ele>213</ele>
        <time>2024-03-27T13:53:05Z</time>
      </trkpt>
      <trkpt lat="44.73189" lon="1.39152">
        <ele>212</ele>
        <time>2024-03-27T13:53:16Z</time>
      </trkpt>
      <trkpt lat="44.73227" lon="1.39218">
        <ele>206</ele>
        <time>2024-03-27T13:54:37Z</time>
      </trkpt>
      <trkpt lat="44.73238" lon="1.39242">
        <ele>205</ele>
        <time>2024-03-27T13:55:04Z</time>
      </trkpt>
    </trkseg>
  </trk>
</gpx>